createdAt,value
2022-11-24T09:57:37.077Z,8.20
2022-11-24T10:00:13.267Z,8.30
2022-11-24T10:02:40.960Z,8.40
2022-11-24T10:05:08.954Z,8.40
2022-11-24T10:08:11.895Z,8.60
2022-11-24T10:10:57.081Z,8.60
2022-11-24T10:14:01.407Z,8.70
2022-11-24T10:17:14.195Z,8.70
2022-11-24T10:20:27.315Z,8.80
2022-11-24T10:27:40.119Z,8.90
2022-11-24T10:30:20.840Z,8.90
2022-11-24T10:33:30.837Z,8.90
2022-11-24T10:36:15.994Z,8.90
2022-11-24T10:38:50.711Z,9.00
2022-11-24T10:41:37.335Z,9.00
2022-11-24T10:44:05.275Z,9.10
2022-11-24T10:46:39.608Z,9.10
2022-11-24T10:49:08.088Z,9.20
2022-11-24T10:51:44.500Z,9.30
2022-11-24T10:54:22.253Z,9.20
2022-11-24T10:56:55.170Z,9.20
2022-11-24T10:59:34.865Z,9.30
2022-11-24T11:02:32.523Z,9.30
2022-11-24T11:05:33.163Z,9.60
2022-11-24T11:08:21.098Z,9.40
2022-11-24T11:10:51.551Z,9.30
2022-11-24T11:13:25.301Z,9.40
2022-11-24T11:15:53.189Z,9.40
2022-11-24T11:18:22.314Z,9.40
2022-11-24T11:20:56.418Z,9.60
2022-11-24T11:23:33.987Z,9.80
2022-11-24T11:26:32.176Z,9.80
2022-11-24T11:34:57.363Z,10.20
2022-11-24T11:37:33.221Z,10.30
2022-11-24T11:40:01.919Z,10.30
2022-11-24T11:43:00.850Z,10.40
2022-11-24T11:45:36.071Z,10.30
2022-11-24T11:48:03.876Z,10.40
2022-11-24T11:54:05.796Z,10.50
2022-11-24T11:59:33.144Z,10.50
2022-11-24T12:02:30.115Z,10.50
2022-11-24T12:05:27.773Z,10.50
2022-11-24T12:08:23.954Z,10.50
2022-11-24T12:10:59.931Z,10.60
2022-11-24T12:13:42.160Z,10.60
2022-11-24T12:16:18.278Z,10.60
2022-11-24T12:18:59.137Z,10.90
2022-11-24T12:21:34.779Z,10.70
2022-11-24T12:24:23.422Z,10.70
2022-11-24T12:27:04.219Z,10.70
2022-11-24T12:30:04.997Z,10.70
2022-11-24T12:33:10.350Z,10.70
2022-11-24T12:35:45.950Z,10.70
2022-11-24T12:38:19.493Z,10.70
2022-11-24T12:41:45.794Z,10.70
2022-11-24T12:51:40.218Z,10.90
2022-11-24T12:54:14.071Z,10.90
2022-11-24T13:02:42.340Z,10.80
2022-11-24T13:05:20.211Z,10.80
2022-11-24T13:07:50.542Z,10.80
2022-11-24T13:10:46.459Z,10.50
2022-11-24T13:13:14.889Z,10.70
2022-11-24T13:16:34.708Z,10.60
2022-11-24T13:18:53.748Z,10.60
2022-11-24T13:21:28.418Z,10.60
2022-11-24T13:24:05.661Z,10.50
2022-11-24T13:26:43.274Z,10.50
2022-11-24T13:29:39.062Z,10.40
2022-11-24T13:32:07.033Z,10.30
2022-11-24T13:34:46.176Z,10.30
2022-11-24T13:37:26.501Z,10.10
2022-11-24T23:19:52.833Z,7.20
2022-11-24T23:22:27.827Z,7.20
2022-11-24T23:24:56.754Z,7.20
2022-11-24T23:43:20.929Z,7.50
2022-11-24T23:46:55.258Z,7.50
2022-11-24T23:49:32.189Z,7.50
